Time;durP1;ratioP1;P1;durP2;ratioP2;P2;SDS_P1;SDS_P2;PMS_P1;PMS_P2;Temp;Humidity;BMP_temperature;BMP_pressure;BME280_temperature;BME280_humidity;BME280_pressure;Samples;Min_cycle;Max_cycle;Signal;HPM_P1;HPM_P2
2021/03/12 00:01:15;;;;;;;54.53;30.05;;;;;;;-0.49;75.16;101107.13;5090933;28;20035;-68
2021/03/12 00:03:41;;;;;;;60.50;31.77;;;;;;;0.03;73.72;101102.22;5072785;28;20035;-69
2021/03/12 00:06:10;;;;;;;53.88;29.23;;;;;;;-0.19;72.88;101087.34;5090021;28;20028;-69
2021/03/12 00:08:41;;;;;;;48.05;29.30;;;;;;;-0.12;73.42;101081.75;5090848;28;20058;-68
2021/03/12 00:11:08;;;;;;;51.17;27.67;;;;;;;-0.57;73.72;101082.69;5072841;28;20508;-69
2021/03/12 00:13:35;;;;;;;49.97;27.70;;;;;;;-0.17;72.63;101075.75;5090949;28;20627;-69
2021/03/12 00:16:01;;;;;;;46.28;26.73;;;;;;;-0.53;75.54;101090.34;5072669;28;20028;-68
2021/03/12 00:18:38;;;;;;;46.33;26.20;;;;;;;-0.13;75.12;101087.53;5072692;28;20032;-68
2021/03/12 00:21:04;;;;;;;45.47;25.10;;;;;;;-0.63;74.12;101073.34;5090609;28;20157;-69
2021/03/12 00:23:38;;;;;;;42.63;23.50;;;;;;;0.18;72.28;101060.22;5090854;28;20405;-68
2021/03/12 00:26:04;;;;;;;45.20;24.63;;;;;;;-0.24;73.68;101054.72;5090687;28;20024;-69
2021/03/12 00:28:30;;;;;;;37.10;20.95;;;;;;;-0.63;75.36;101042.53;5072539;28;20031;-69
2021/03/12 00:30:59;;;;;;;37.42;21.65;;;;;;;-0.31;73.20;101040.34;5072464;28;20473;-69
2021/03/12 00:33:27;;;;;;;34.85;21.25;;;;;;;-0.28;75.34;101057.91;5072626;28;20024;-68
2021/03/12 00:35:53;;;;;;;36.97;21.48;;;;;;;-0.48;73.44;101060.56;5090475;28;20039;-68
2021/03/12 00:38:22;;;;;;;36.92;21.75;;;;;;;-0.07;72.96;101070.25;5090501;28;20400;-69
2021/03/12 00:40:55;;;;;;;39.53;21.83;;;;;;;-0.27;73.46;101076.25;5072543;28;20630;-69
2021/03/12 00:43:22;;;;;;;37.35;21.58;;;;;;;-0.52;75.30;101069.59;5072391;28;20020;-68
2021/03/12 00:45:52;;;;;;;38.92;23.00;;;;;;;-0.18;74.49;101072.38;5090435;28;20146;-68
2021/03/12 00:48:20;;;;;;;45.25;26.48;;;;;;;-0.03;74.33;101082.03;5072558;28;20032;-68
2021/03/12 00:50:47;;;;;;;45.50;26.45;;;;;;;-0.16;72.45;101058.31;5072770;28;20117;-68
2021/03/12 00:53:13;;;;;;;43.50;24.52;;;;;;;-0.19;73.68;101058.22;5072791;28;20047;-69
2021/03/12 00:55:38;;;;;;;43.05;24.02;;;;;;;-0.53;73.19;101065.38;5072323;28;20028;-69
2021/03/12 00:58:05;;;;;;;39.30;22.73;;;;;;;-0.58;74.18;101069.38;5090434;28;20024;-68
2021/03/12 01:00:34;;;;;;;38.28;21.48;;;;;;;-0.40;73.34;101067.50;5090455;28;20028;-69
2021/03/12 01:02:59;;;;;;;31.77;18.17;;;;;;;-0.21;72.48;101067.31;5072253;28;20023;-69
2021/03/12 01:05:27;;;;;;;29.38;16.98;;;;;;;-0.39;72.28;101058.34;5072015;28;20409;-68
2021/03/12 01:07:54;;;;;;;31.88;16.17;;;;;;;0.05;72.72;101060.66;5090419;28;20559;-69
2021/03/12 01:10:22;;;;;;;25.60;14.80;;;;;;;-0.06;71.97;101055.31;5072084;28;20067;-68
2021/03/12 01:12:49;;;;;;;27.30;15.27;;;;;;;-0.41;72.00;101043.31;5072040;28;20084;-69
2021/03/12 01:15:24;;;;;;;24.20;14.63;;;;;;;-0.86;73.00;101046.75;5072291;28;20024;-69
2021/03/12 01:17:52;;;;;;;24.83;14.82;;;;;;;-0.72;74.01;101054.72;5093581;28;20020;-69
2021/03/12 01:20:21;;;;;;;26.13;15.50;;;;;;;-0.26;72.42;101058.81;5093766;28;20071;-68
2021/03/12 01:22:47;;;;;;;24.30;15.32;;;;;;;-0.41;73.32;101062.44;5093840;28;20047;-69
2021/03/12 01:25:19;;;;;;;23.05;13.75;;;;;;;-0.10;70.89;101050.19;5075453;28;20050;-68
2021/03/12 01:27:45;;;;;;;26.10;14.32;;;;;;;-0.61;72.43;101036.81;5093891;28;20412;-68
2021/03/12 01:30:18;;;;;;;30.02;17.15;;;;;;;-0.42;74.08;101026.66;5093837;28;20032;-68
2021/03/12 01:32:46;;;;;;;32.97;19.77;;;;;;;-0.48;75.61;101003.13;5075439;28;20059;-68
2021/03/12 01:35:13;;;;;;;34.70;21.10;;;;;;;-0.70;74.57;101001.56;5093663;28;20102;-69
2021/03/12 01:37:40;;;;;;;33.65;20.88;;;;;;;-1.02;75.90;100965.56;5093291;28;20036;-68
2021/03/12 01:40:08;;;;;;;31.92;19.60;;;;;;;-1.17;79.17;100979.97;5093495;28;20050;-68
2021/03/12 01:42:34;;;;;;;35.20;21.15;;;;;;;-1.00;77.59;100975.59;5075397;28;20123;-68
2021/03/12 01:45:00;;;;;;;31.38;18.20;;;;;;;-1.36;79.26;100977.63;5075212;28;20035;-68
2021/03/12 01:47:27;;;;;;;37.30;21.15;;;;;;;-1.31;78.31;100976.19;5093347;28;20448;-69
2021/03/12 01:49:58;;;;;;;31.80;19.45;;;;;;;-1.13;78.03;100975.97;5093353;28;20028;-68
2021/03/12 01:52:24;;;;;;;31.35;17.50;;;;;;;-1.21;78.89;100972.34;5074925;28;20055;-68
2021/03/12 01:54:52;;;;;;;27.02;15.85;;;;;;;-0.65;77.68;100976.78;5075297;28;20421;-69
2021/03/12 01:57:21;;;;;;;25.58;15.90;;;;;;;-1.48;77.91;100971.34;5075146;28;20063;-69
2021/03/12 01:59:48;;;;;;;25.85;15.18;;;;;;;-0.83;76.88;100978.66;5092953;28;20035;-69
2021/03/12 02:02:14;;;;;;;33.97;17.40;;;;;;;-1.14;78.06;100964.28;5075045;28;20028;-68
2021/03/12 02:04:39;;;;;;;27.38;15.98;;;;;;;-1.43;78.47;100963.28;5074679;28;20035;-69
2021/03/12 02:07:07;;;;;;;27.40;16.20;;;;;;;-1.22;77.40;100960.66;5074956;28;20048;-69
2021/03/12 02:09:35;;;;;;;44.05;22.40;;;;;;;-0.51;76.53;100975.56;5074913;28;20031;-69
2021/03/12 02:12:16;;;;;;;44.85;23.95;;;;;;;-0.64;76.18;100983.44;5093356;28;20081;-68
2021/03/12 02:15:27;;;;;;;37.80;18.38;;;;;;;-0.83;75.97;100981.16;5074951;28;20047;-69
2021/03/12 02:18:05;;;;;;;45.75;23.75;;;;;;;-1.18;76.62;100967.47;5014338;28;20123;-69
2021/03/12 02:20:37;;;;;;;55.13;26.20;;;;;;;-0.80;75.49;100946.31;5092627;28;20554;-69
2021/03/12 02:23:11;;;;;;;57.17;29.63;;;;;;;-1.04;76.97;100969.66;5074651;28;20467;-69
2021/03/12 02:25:44;;;;;;;58.55;30.70;;;;;;;-0.94;76.86;100958.31;5074442;28;20024;-68
2021/03/12 02:28:11;;;;;;;51.60;27.02;;;;;;;-1.04;77.44;100964.66;5073645;28;20103;-69
2021/03/12 02:30:38;;;;;;;47.38;24.58;;;;;;;-1.08;77.27;100959.50;5092674;28;20489;-69
2021/03/12 02:33:05;;;;;;;46.03;24.45;;;;;;;-0.80;76.24;100957.16;5092412;28;20028;-69
2021/03/12 02:35:32;;;;;;;45.65;24.73;;;;;;;-0.99;76.64;100952.34;5074188;28;20351;-69
2021/03/12 02:38:00;;;;;;;45.95;24.83;;;;;;;-0.77;77.33;100967.22;5092479;28;20022;-69
2021/03/12 02:40:26;;;;;;;43.50;24.30;;;;;;;-0.69;76.37;100968.31;5092234;28;20663;-68
2021/03/12 02:42:53;;;;;;;41.00;23.88;;;;;;;-0.71;76.15;100981.56;5092253;28;20020;-69
2021/03/12 02:45:20;;;;;;;47.83;25.45;;;;;;;-0.89;76.13;100976.78;5092328;28;20386;-69
2021/03/12 02:47:47;;;;;;;43.42;25.20;;;;;;;-1.03;77.18;100968.84;5074008;28;20431;-68
2021/03/12 02:50:14;;;;;;;44.45;24.80;;;;;;;-0.95;75.90;100976.56;5092185;28;20176;-69
2021/03/12 02:52:40;;;;;;;41.75;23.73;;;;;;;-1.28;77.08;100976.28;5073737;28;20036;-68
2021/03/12 02:55:09;;;;;;;38.55;23.45;;;;;;;-0.97;76.76;100978.19;5092038;28;20089;-68
2021/03/12 02:57:38;;;;;;;39.05;23.33;;;;;;;-1.09;76.85;100961.13;5092048;28;20024;-69
2021/03/12 03:00:08;;;;;;;38.55;23.33;;;;;;;-1.33;77.06;100969.44;5073845;28;20119;-69
2021/03/12 03:02:35;;;;;;;40.80;23.80;;;;;;;-1.25;76.45;100963.91;5091934;28;20023;-69
2021/03/12 03:05:06;;;;;;;38.55;22.42;;;;;;;-1.16;77.32;100963.38;5091957;28;20039;-69
2021/03/12 03:07:31;;;;;;;39.85;23.52;;;;;;;-1.47;76.73;100958.97;5091652;28;20512;-69
2021/03/12 03:09:59;;;;;;;38.30;23.55;;;;;;;-1.55;79.38;100949.50;5091721;28;20036;-67
2021/03/12 03:12:28;;;;;;;39.95;22.73;;;;;;;-0.77;78.01;100946.44;5073652;28;20032;-69
2021/03/12 03:14:59;;;;;;;41.78;23.70;;;;;;;-0.57;76.22;100943.75;5073447;28;20032;-69
2021/03/12 03:17:28;;;;;;;47.47;27.02;;;;;;;-0.98;78.51;100934.94;5091601;28;20031;-68
2021/03/12 03:19:56;;;;;;;50.08;27.80;;;;;;;-0.45;75.56;100943.28;5073377;28;20043;-69
2021/03/12 03:22:23;;;;;;;49.53;28.40;;;;;;;-0.92;77.42;100944.25;5091455;28;20103;-69
2021/03/12 03:24:48;;;;;;;56.13;29.20;;;;;;;-0.59;76.98;100951.97;5092055;28;20032;-69
2021/03/12 03:27:17;;;;;;;46.90;25.42;;;;;;;-1.13;77.72;100956.84;5091497;28;20031;-68
2021/03/12 03:29:44;;;;;;;46.38;24.95;;;;;;;-0.87;75.98;100958.56;5073334;28;20039;-68
2021/03/12 03:32:14;;;;;;;44.33;25.33;;;;;;;-1.42;78.32;100967.44;5091532;28;20386;-69
2021/03/12 03:34:42;;;;;;;50.55;27.30;;;;;;;-1.56;78.64;100957.75;5074478;28;20162;-68
2021/03/12 03:37:07;;;;;;;49.65;26.85;;;;;;;-1.00;77.46;100968.09;5073292;28;20032;-68
2021/03/12 03:39:35;;;;;;;47.28;25.67;;;;;;;-0.67;77.67;100961.72;5091315;28;20412;-68
2021/03/12 03:42:04;;;;;;;49.30;26.75;;;;;;;-0.60;76.65;100947.81;5091177;28;20024;-69
2021/03/12 03:44:35;;;;;;;48.20;27.00;;;;;;;-0.53;77.98;100963.03;5091165;28;20040;-69
2021/03/12 03:47:03;;;;;;;50.17;28.33;;;;;;;-0.96;76.62;100959.91;5091354;28;20109;-69
2021/03/12 03:49:35;;;;;;;51.50;28.55;;;;;;;-0.44;76.87;100942.50;5091137;28;20039;-68
2021/03/12 03:52:02;;;;;;;46.33;26.77;;;;;;;-0.82;77.18;100948.75;5090767;28;20127;-69
2021/03/12 03:54:28;;;;;;;49.63;28.35;;;;;;;-0.50;75.85;100950.66;5073268;28;20040;-68
2021/03/12 03:56:57;;;;;;;49.38;28.73;;;;;;;-1.42;78.19;100962.47;5091024;28;20613;-69
2021/03/12 03:59:23;;;;;;;46.05;26.42;;;;;;;-1.01;79.37;100956.44;5090862;28;20550;-69
2021/03/12 04:01:50;;;;;;;48.85;27.42;;;;;;;-0.63;76.61;100956.03;5091095;28;20062;-68
2021/03/12 04:04:16;;;;;;;46.88;26.58;;;;;;;-0.38;76.76;100951.06;5072816;28;20110;-69
2021/03/12 04:06:44;;;;;;;42.03;24.58;;;;;;;-0.93;77.19;100935.06;5072858;28;20428;-69
2021/03/12 04:09:15;;;;;;;35.97;21.02;;;;;;;-0.92;77.35;100940.13;5072864;28;20400;-69
2021/03/12 04:11:42;;;;;;;34.28;18.92;;;;;;;-1.24;78.51;100934.81;5090846;28;20028;-69
2021/03/12 04:14:11;;;;;;;45.13;20.83;;;;;;;-1.10;78.23;100926.19;5090100;28;20059;-69
2021/03/12 04:16:38;;;;;;;50.28;24.15;;;;;;;-1.33;78.32;100927.91;5071056;28;20122;-68
2021/03/12 04:19:05;;;;;;;51.25;26.15;;;;;;;-1.21;78.33;100923.31;5072073;28;20035;-67
2021/03/12 04:21:32;;;;;;;75.88;38.13;;;;;;;-1.59;79.50;100940.22;5090951;28;20031;-68
2021/03/12 04:24:00;;;;;;;153.40;63.63;;;;;;;-1.16;78.31;100933.44;5091073;28;20063;-68
2021/03/12 04:26:26;;;;;;;151.60;66.40;;;;;;;-1.63;79.21;100936.78;5072479;28;20036;-69
2021/03/12 04:28:53;;;;;;;94.35;45.08;;;;;;;-1.17;78.27;100924.28;5090808;28;20103;-69
2021/03/12 04:31:21;;;;;;;51.72;28.42;;;;;;;-1.29;78.22;100933.84;5072595;28;20489;-68
2021/03/12 04:33:54;;;;;;;56.28;29.67;;;;;;;-1.40;78.43;100927.59;5090557;28;20070;-69
2021/03/12 04:36:20;;;;;;;54.55;29.08;;;;;;;-1.16;78.95;100954.25;5072627;28;20401;-68
2021/03/12 04:38:47;;;;;;;59.05;30.23;;;;;;;-0.88;78.24;100951.91;5072462;28;20127;-69
2021/03/12 04:41:14;;;;;;;49.35;24.83;;;;;;;-1.04;78.35;100952.19;5072696;28;20035;-69
2021/03/12 04:43:43;;;;;;;48.25;25.48;;;;;;;-0.50;76.83;100932.31;5089989;28;20030;-69
2021/03/12 04:46:12;;;;;;;57.13;29.98;;;;;;;-0.96;77.45;100935.84;5072521;28;20024;-69
2021/03/12 04:48:39;;;;;;;67.55;34.15;;;;;;;-1.07;77.38;100926.28;5090692;28;20021;-69
2021/03/12 04:51:09;;;;;;;82.03;39.40;;;;;;;-1.38;79.44;100929.38;5072931;28;20024;-69
2021/03/12 04:53:43;;;;;;;58.63;31.13;;;;;;;-1.19;77.96;100943.34;5076206;28;20413;-69
2021/03/12 04:56:09;;;;;;;62.03;31.05;;;;;;;-0.99;78.63;100934.88;5076585;28;20111;-69
2021/03/12 04:58:38;;;;;;;60.40;30.10;;;;;;;-1.16;78.08;100920.97;5094600;28;20115;-69
2021/03/12 05:01:09;;;;;;;62.53;31.38;;;;;;;-0.72;76.40;100900.84;5094148;28;20499;-69
2021/03/12 05:03:37;;;;;;;50.60;24.90;;;;;;;-0.92;78.63;100897.72;5094470;28;20077;-69
2021/03/12 05:06:05;;;;;;;66.63;31.92;;;;;;;-0.63;76.38;100895.28;5075965;28;20024;-69
2021/03/12 05:08:32;;;;;;;60.50;28.50;;;;;;;-1.06;76.90;100865.63;5075736;28;20433;-69
2021/03/12 05:11:09;;;;;;;61.40;29.63;;;;;;;-1.14;76.82;100907.78;5094138;28;20491;-69
2021/03/12 05:13:36;;;;;;;64.85;30.85;;;;;;;-1.45;77.79;100909.16;5075729;28;20028;-69
2021/03/12 05:16:03;;;;;;;64.32;31.15;;;;;;;-1.08;77.02;100895.50;5075763;28;20119;-69
2021/03/12 05:18:29;;;;;;;56.95;28.83;;;;;;;-1.14;77.24;100914.41;5094039;28;20582;-69
2021/03/12 05:20:57;;;;;;;53.30;29.48;;;;;;;-1.07;76.90;100901.34;5075555;28;20036;-69
2021/03/12 05:23:23;;;;;;;65.53;31.05;;;;;;;-1.20;77.34;100904.22;5093768;28;20539;-68
2021/03/12 05:25:50;;;;;;;69.25;33.30;;;;;;;-1.18;78.63;100897.63;5075804;28;20024;-68
2021/03/12 05:28:17;;;;;;;61.65;32.40;;;;;;;-1.15;77.45;100903.56;5075546;28;20067;-69
2021/03/12 05:30:43;;;;;;;61.15;31.83;;;;;;;-1.21;76.63;100908.34;5075785;28;20077;-69
2021/03/12 05:33:10;;;;;;;59.55;30.83;;;;;;;-0.80;76.71;100897.25;5075416;28;20485;-68
2021/03/12 05:35:36;;;;;;;56.55;31.27;;;;;;;-1.15;77.99;100901.06;5093500;28;20028;-69
2021/03/12 05:38:02;;;;;;;59.03;32.90;;;;;;;-0.53;75.88;100912.25;5093627;28;20535;-69
2021/03/12 05:40:28;;;;;;;70.82;37.92;;;;;;;-0.49;76.70;100916.53;5093447;28;20079;-69
2021/03/12 05:42:55;;;;;;;85.00;46.03;;;;;;;-0.36;74.75;100916.97;5075331;28;20032;-69
2021/03/12 05:45:23;;;;;;;76.40;40.63;;;;;;;-0.18;74.61;100917.50;5093443;28;20036;-68
2021/03/12 05:47:49;;;;;;;68.82;39.70;;;;;;;0.09;73.94;100924.13;5075255;28;20092;-69
2021/03/12 05:50:15;;;;;;;63.78;35.58;;;;;;;0.24;73.43;100925.41;5075226;28;20024;-69
2021/03/12 05:52:51;;;;;;;60.85;34.75;;;;;;;0.02;73.79;100919.78;5074982;28;20063;-72
2021/03/12 05:55:23;;;;;;;70.05;35.20;;;;;;;-0.15;74.28;100916.75;5075859;28;20062;-71
2021/03/12 05:57:50;;;;;;;;;;;;;;;0.23;73.26;100915.38;5075911;28;20084;-72
2021/03/12 06:00:20;;;;;;;63.55;32.53;;;;;;;-0.19;76.40;100923.31;5075868;28;20116;-72
2021/03/12 06:02:53;;;;;;;82.90;40.58;;;;;;;-0.02;73.75;100923.84;5074463;28;20455;-71
2021/03/12 06:05:36;;;;;;;84.72;43.80;;;;;;;0.25;73.20;100918.78;5075316;28;20078;-72
2021/03/12 06:08:01;;;;;;;80.82;42.53;;;;;;;0.27;72.73;100917.16;5075706;28;20052;-72
2021/03/12 06:10:31;;;;;;;76.32;38.55;;;;;;;0.06;72.78;100919.88;5075516;28;20066;-72
2021/03/12 06:12:57;;;;;;;75.43;39.25;;;;;;;0.38;72.00;100895.81;5084703;28;20024;-71
2021/03/12 06:15:43;;;;;;;79.40;42.38;;;;;;;0.29;73.53;100895.56;5058411;28;20141;-75
2021/03/12 06:18:25;;;;;;;70.65;36.88;;;;;;;0.27;72.95;100917.16;5069768;28;20055;-71
2021/03/12 06:20:57;;;;;;;72.03;37.00;;;;;;;0.37;72.56;100909.97;4719494;28;9999991;-72
2021/03/12 06:23:35;;;;;;;64.00;35.05;;;;;;;0.56;72.23;100918.81;5051330;28;20055;-72
2021/03/12 06:26:02;;;;;;;62.83;34.20;;;;;;;0.77;70.86;100921.91;5069566;28;20198;-71
2021/03/12 06:28:27;;;;;;;61.00;33.92;;;;;;;1.04;69.98;100930.13;5050795;28;20486;-72
2021/03/12 06:30:53;;;;;;;71.35;40.55;;;;;;;0.83;71.21;100932.09;5051435;28;20036;-73
2021/03/12 06:33:32;;;;;;;78.68;42.95;;;;;;;1.22;70.20;100923.06;5069576;28;20037;-72
2021/03/12 06:35:59;;;;;;;83.97;44.78;;;;;;;1.27;69.82;100920.69;5068677;28;20032;-72
2021/03/12 06:38:28;;;;;;;80.47;43.35;;;;;;;0.86;70.09;100907.13;5050889;28;20438;-72
2021/03/12 06:40:56;;;;;;;77.85;42.80;;;;;;;1.12;70.90;100923.66;5052219;28;20524;-73
2021/03/12 06:43:25;;;;;;;78.18;43.40;;;;;;;1.47;68.92;100927.00;5050823;28;20058;-72
2021/03/12 06:45:54;;;;;;;76.15;44.03;;;;;;;1.47;67.40;100919.50;5050618;28;20033;-73
2021/03/12 06:48:22;;;;;;;83.25;44.10;;;;;;;1.41;70.08;100927.72;5050692;28;20029;-72
2021/03/12 06:51:07;;;;;;;84.70;49.55;;;;;;;1.36;68.69;100934.28;5068865;28;20145;-72
2021/03/12 06:53:41;;;;;;;144.90;60.47;;;;;;;1.33;67.07;100920.81;5067995;28;20063;-71
2021/03/12 06:56:14;;;;;;;170.10;76.20;;;;;;;1.48;66.92;100929.56;5068777;28;20028;-71
2021/03/12 06:58:57;;;;;;;112.40;63.83;;;;;;;1.73;64.84;100938.47;5088213;28;20508;-71
2021/03/12 07:01:24;;;;;;;133.80;67.57;;;;;;;1.83;67.49;100940.38;5054304;28;20413;-71
2021/03/12 07:04:09;;;;;;;110.07;63.03;;;;;;;2.38;64.81;100934.88;5088795;28;20020;-72
2021/03/12 07:06:50;;;;;;;112.50;61.20;;;;;;;2.08;67.01;100941.78;5070650;28;20040;-74
2021/03/12 07:09:18;;;;;;;76.60;39.30;;;;;;;2.14;66.13;100952.78;5087189;28;20110;-72
2021/03/12 07:11:59;;;;;;;96.55;51.00;;;;;;;2.08;66.81;100929.25;5089587;28;20028;-73
2021/03/12 07:14:27;;;;;;;109.55;57.42;;;;;;;1.94;66.89;100938.13;5088611;28;20035;-71
2021/03/12 07:16:56;;;;;;;117.60;59.90;;;;;;;2.05;66.63;100916.63;5070768;28;20048;-71
2021/03/12 07:19:23;;;;;;;72.82;44.88;;;;;;;2.05;69.87;100929.16;5070878;28;20361;-71
2021/03/12 07:21:57;;;;;;;73.10;41.33;;;;;;;1.89;70.38;100949.69;5070849;28;20512;-74
2021/03/12 07:24:25;;;;;;;64.05;36.80;;;;;;;1.90;70.88;100956.41;5068724;28;20106;-72
2021/03/12 07:26:56;;;;;;;68.65;39.70;;;;;;;2.34;69.79;100950.69;5050622;28;20071;-72
2021/03/12 07:29:25;;;;;;;56.50;32.25;;;;;;;2.16;68.31;100961.19;5049994;28;20038;-72
2021/03/12 07:31:53;;;;;;;64.28;33.92;;;;;;;1.99;67.65;100956.63;5068320;28;20063;-72
2021/03/12 07:34:39;;;;;;;64.50;36.67;;;;;;;2.47;67.82;100935.94;5068032;28;20047;-72
2021/03/12 07:37:07;;;;;;;66.90;36.90;;;;;;;2.25;69.24;100920.41;5047410;28;20071;-71
2021/03/12 07:39:45;;;;;;;39.30;25.63;;;;;;;2.55;66.77;100901.81;5050273;28;20055;-72
2021/03/12 07:42:19;;;;;;;45.50;27.23;;;;;;;2.83;66.17;100924.91;5049985;28;20052;-72
2021/03/12 07:44:49;;;;;;;30.25;18.58;;;;;;;2.41;65.82;100939.97;5051323;28;20521;-74
2021/03/12 07:47:23;;;;;;;32.92;19.17;;;;;;;2.72;66.95;100942.25;5067650;28;20020;-71
2021/03/12 07:49:48;;;;;;;26.92;16.45;;;;;;;2.72;63.40;100911.28;5049745;28;20585;-72
2021/03/12 07:52:15;;;;;;;27.70;16.98;;;;;;;2.81;64.82;100929.91;5046099;28;20132;-73
2021/03/12 07:54:48;;;;;;;30.83;18.48;;;;;;;3.18;63.70;100936.41;5048405;28;20091;-73
2021/03/12 07:57:31;;;;;;;23.65;13.82;;;;;;;2.83;59.97;100958.38;5048006;28;20041;-74
2021/03/12 07:59:59;;;;;;;20.73;14.23;;;;;;;3.30;57.11;100952.53;5047558;28;20032;-74
2021/03/12 08:02:50;;;;;;;24.05;15.55;;;;;;;3.99;55.58;100947.75;5047148;28;20036;-73
2021/03/12 08:05:30;;;;;;;24.73;15.15;;;;;;;3.66;57.24;100934.69;5046948;28;20029;-74
2021/03/12 08:08:42;;;;;;;26.50;17.13;;;;;;;3.69;57.53;100962.38;5048286;28;20143;-75
2021/03/12 08:11:34;;;;;;;25.33;16.10;;;;;;;3.37;55.22;100969.41;5047663;28;20037;-75
2021/03/12 08:14:08;;;;;;;33.00;21.77;;;;;;;3.19;56.24;100959.03;5046597;28;20029;-75
2021/03/12 08:16:35;;;;;;;33.30;19.70;;;;;;;3.30;55.27;100949.19;5045825;28;20063;-74
2021/03/12 08:19:40;;;;;;;37.00;22.13;;;;;;;3.23;55.49;100942.34;5047084;28;20041;-74
2021/03/12 08:22:28;;;;;;;25.48;17.17;;;;;;;3.43;56.04;100944.38;5044500;28;20040;-74
2021/03/12 08:24:57;;;;;;;41.13;23.92;;;;;;;3.50;55.40;100936.13;5046015;28;20040;-76
2021/03/12 08:27:47;;;;;;;21.35;13.85;;;;;;;3.20;56.84;100932.25;5049984;28;20299;-72
2021/03/12 08:30:30;;;;;;;21.08;12.73;;;;;;;3.65;56.03;100932.13;5049295;28;20045;-75
2021/03/12 08:32:57;;;;;;;62.40;24.35;;;;;;;3.47;55.10;100925.16;5050098;28;20037;-77
2021/03/12 08:35:39;;;;;;;108.82;36.28;;;;;;;4.04;54.03;100915.13;5049184;28;20025;-74
2021/03/12 08:38:28;;;;;;;61.03;36.10;;;;;;;4.01;53.63;100920.94;5051427;28;20032;-77
2021/03/12 08:41:13;;;;;;;31.35;19.33;;;;;;;3.73;52.77;100910.47;5051225;28;20032;-74
2021/03/12 08:43:53;;;;;;;22.73;14.25;;;;;;;4.02;53.38;100889.09;5050262;28;20460;-77
2021/03/12 08:46:29;;;;;;;26.08;16.48;;;;;;;3.43;53.78;100899.16;5050590;28;20029;-72
2021/03/12 08:49:04;;;;;;;32.85;19.48;;;;;;;3.40;56.16;100918.34;5050444;28;20021;-77
2021/03/12 08:51:30;;;;;;;26.75;15.27;;;;;;;3.58;54.31;100907.75;5053697;28;20048;-76
2021/03/12 08:54:02;;;;;;;22.85;14.55;;;;;;;3.61;54.75;100898.56;5053706;28;20482;-74
2021/03/12 08:56:29;;;;;;;26.83;18.95;;;;;;;3.86;54.77;100893.09;5053404;28;20025;-74
2021/03/12 08:58:55;;;;;;;23.80;14.07;;;;;;;3.97;54.86;100863.88;5053563;28;20121;-75
2021/03/12 09:01:25;;;;;;;23.63;13.98;;;;;;;3.81;55.12;100861.13;5071385;28;20090;-74
2021/03/12 09:03:54;;;;;;;37.63;22.92;;;;;;;3.73;55.55;100873.63;5053171;28;20032;-73
2021/03/12 09:06:28;;;;;;;20.17;14.20;;;;;;;4.45;54.61;100850.19;5052500;28;20077;-74
2021/03/12 09:08:55;;;;;;;23.38;13.10;;;;;;;3.87;55.53;100863.75;5053474;28;20093;-74
2021/03/12 09:11:24;;;;;;;22.13;13.85;;;;;;;3.82;54.05;100858.66;5054296;28;20078;-74
2021/03/12 09:13:53;;;;;;;38.55;21.02;;;;;;;4.47;53.50;100854.41;5052724;28;20552;-76
2021/03/12 09:16:27;;;;;;;17.90;11.75;;;;;;;4.43;54.89;100857.72;5052605;28;20425;-75
2021/03/12 09:18:56;;;;;;;22.77;13.75;;;;;;;3.95;53.68;100839.53;5052624;28;20517;-75
2021/03/12 09:21:25;;;;;;;20.15;11.88;;;;;;;4.12;53.68;100816.25;5052394;28;20040;-78
2021/03/12 09:24:01;;;;;;;24.40;13.00;;;;;;;4.61;51.86;100842.81;5053277;28;20135;-76
2021/03/12 09:26:30;;;;;;;17.13;10.55;;;;;;;4.14;55.08;100833.91;5053290;28;20039;-75
2021/03/12 09:29:00;;;;;;;19.73;11.55;;;;;;;4.42;54.76;100835.88;5052321;28;20032;-75
2021/03/12 09:31:32;;;;;;;17.02;10.32;;;;;;;4.27;54.45;100843.28;5053087;28;20145;-75
2021/03/12 09:34:03;;;;;;;23.05;12.80;;;;;;;5.85;61.00;100828.63;5053229;28;20463;-78
2021/03/12 09:36:50;;;;;;;19.40;12.38;;;;;;;4.84;55.96;100845.53;5052658;28;20024;-79
2021/03/12 09:39:20;;;;;;;17.25;9.52;;;;;;;4.69;51.13;100843.75;5070672;28;20056;-73
2021/03/12 09:42:04;;;;;;;19.13;10.23;;;;;;;4.94;52.07;100827.16;5051973;28;20016;-75
2021/03/12 09:44:30;;;;;;;15.57;10.18;;;;;;;4.93;51.33;100817.94;5052908;28;20417;-73
2021/03/12 09:46:59;;;;;;;16.85;10.50;;;;;;;4.02;53.33;100827.03;5070395;28;20033;-73
2021/03/12 09:49:43;;;;;;;18.25;10.52;;;;;;;4.75;51.26;100833.72;5052902;28;20032;-74
2021/03/12 09:52:14;;;;;;;19.50;12.15;;;;;;;4.49;52.29;100835.13;5070441;28;20076;-78
2021/03/12 09:54:42;;;;;;;21.63;13.40;;;;;;;4.79;52.91;100824.53;5052873;28;20047;-76
2021/03/12 09:57:11;;;;;;;18.25;11.02;;;;;;;4.93;52.24;100826.31;5052749;28;20056;-76
2021/03/12 09:59:38;;;;;;;20.52;12.25;;;;;;;4.57;52.35;100815.94;5052646;28;20024;-74
2021/03/12 10:02:05;;;;;;;34.60;18.88;;;;;;;4.92;51.96;100799.44;5053110;28;20458;-76
2021/03/12 10:04:36;;;;;;;57.83;27.67;;;;;;;5.06;50.92;100818.03;5051875;28;20031;-74
2021/03/12 10:07:09;;;;;;;38.55;23.00;;;;;;;5.81;50.38;100807.56;5052437;28;20025;-75
2021/03/12 10:09:37;;;;;;;22.88;13.85;;;;;;;5.77;50.88;100805.88;5052304;28;20421;-76
2021/03/12 10:12:14;;;;;;;19.15;11.82;;;;;;;6.69;50.34;100793.56;5052565;28;20031;-77
2021/03/12 10:14:43;;;;;;;17.50;12.02;;;;;;;6.58;47.26;100784.25;5069855;28;20035;-76
2021/03/12 10:17:19;;;;;;;23.50;13.15;;;;;;;6.38;48.81;100796.84;5069710;28;20083;-75
2021/03/12 10:20:02;;;;;;;16.40;9.68;;;;;;;6.91;48.71;100769.94;5052501;28;20036;-78
2021/03/12 10:22:38;;;;;;;19.25;13.07;;;;;;;6.38;49.09;100796.84;5071825;28;20119;-76
2021/03/12 10:25:07;;;;;;;21.00;12.40;;;;;;;6.95;48.73;100786.78;5071158;28;20473;-74
2021/03/12 10:27:42;;;;;;;19.25;13.27;;;;;;;6.82;50.03;100782.59;5071619;28;20129;-76
2021/03/12 10:30:12;;;;;;;25.17;15.65;;;;;;;6.81;51.20;100775.03;5089032;28;20040;-76
2021/03/12 10:32:43;;;;;;;18.40;11.75;;;;;;;7.44;48.96;100769.88;5089921;28;20070;-77
2021/03/12 10:35:41;;;;;;;20.13;13.40;;;;;;;6.81;49.57;100775.84;5089872;28;20020;-75
2021/03/12 10:38:20;;;;;;;25.85;18.20;;;;;;;7.15;50.33;100769.06;5089123;28;20123;-76
2021/03/12 10:40:47;;;;;;;23.10;14.73;;;;;;;7.14;49.39;100762.34;5071852;28;20437;-75
2021/03/12 10:43:27;;;;;;;18.42;10.60;;;;;;;6.52;50.70;100764.03;5089852;28;20035;-75
2021/03/12 10:45:56;;;;;;;18.77;11.43;;;;;;;6.41;52.09;100741.31;5071886;28;20027;-76
2021/03/12 10:48:27;;;;;;;15.25;11.68;;;;;;;6.89;51.57;100733.72;5071610;28;20559;-74
2021/03/12 10:50:57;;;;;;;24.73;17.97;;;;;;;6.06;52.77;100727.81;5071549;28;20055;-77
2021/03/12 10:53:24;;;;;;;16.00;10.15;;;;;;;7.97;50.73;100733.38;5067967;28;20299;-76
2021/03/12 10:56:07;;;;;;;20.55;12.40;;;;;;;7.21;51.81;100723.56;5069393;28;20037;-76
2021/03/12 10:58:38;;;;;;;13.63;9.23;;;;;;;7.66;50.73;100731.03;5069212;28;20032;-77
2021/03/12 11:01:14;;;;;;;;;;;;;;;7.94;49.91;100744.38;5070116;28;20036;-76
2021/03/12 11:03:43;;;;;;;16.63;12.15;;;;;;;7.37;49.99;100745.44;5066218;28;19912;-76
2021/03/12 11:06:13;;;;;;;17.92;12.05;;;;;;;8.61;47.98;100730.47;5067465;28;20039;-76
2021/03/12 11:08:40;;;;;;;17.80;11.68;;;;;;;8.31;49.90;100719.72;5068009;28;20560;-77
2021/03/12 11:11:07;;;;;;;19.77;14.02;;;;;;;9.73;48.56;100719.13;5068632;28;20028;-77
2021/03/12 11:13:38;;;;;;;22.00;13.75;;;;;;;9.57;49.28;100715.09;5067918;28;20437;-78
2021/03/12 11:16:11;;;;;;;15.98;11.02;;;;;;;8.93;49.84;100704.84;5068187;28;20028;-78
2021/03/12 11:18:40;;;;;;;32.67;20.67;;;;;;;8.41;50.35;100698.53;5067199;28;20112;-77
2021/03/12 11:21:08;;;;;;;20.27;13.90;;;;;;;7.81;51.96;100694.66;5056226;28;20029;-76
2021/03/12 11:23:34;;;;;;;25.08;15.90;;;;;;;7.80;52.79;100695.53;5047847;28;20067;-76
2021/03/12 11:26:00;;;;;;;22.15;16.52;;;;;;;8.64;50.01;100694.09;5048725;28;20502;-77
2021/03/12 11:28:32;;;;;;;18.90;12.98;;;;;;;8.49;50.45;100676.50;5048943;28;20029;-77
2021/03/12 11:30:59;;;;;;;21.73;15.52;;;;;;;8.15;49.01;100680.94;5047599;28;20538;-75